Time;durP1;ratioP1;P1;durP2;ratioP2;P2;SDS_P1;SDS_P2;PMS_P1;PMS_P2;Temp;Humidity;BMP_temperature;BMP_pressure;BME280_temperature;BME280_humidity;BME280_pressure;Samples;Min_cycle;Max_cycle;Signal;HPM_P1;HPM_P2
2023/08/22 00:01:25;;;;;;;3.57;2.20;;;19.70;86.30;;;;;;5013426;28;20438;-65
2023/08/22 00:03:56;;;;;;;2.60;2.00;;;19.70;86.90;;;;;;5013570;28;20441;-64
2023/08/22 00:06:23;;;;;;;4.00;2.20;;;19.70;87.50;;;;;;5013590;28;20422;-65
2023/08/22 00:08:50;;;;;;;4.33;2.60;;;19.60;88.20;;;;;;5013696;28;20481;-65
2023/08/22 00:11:17;;;;;;;5.83;2.90;;;19.60;89.00;;;;;;5013314;28;20515;-65
2023/08/22 00:13:44;;;;;;;4.57;3.00;;;19.60;89.90;;;;;;5014150;28;20438;-65
2023/08/22 00:16:10;;;;;;;6.53;2.63;;;19.50;90.20;;;;;;5013217;28;20448;-65
2023/08/22 00:18:37;;;;;;;6.80;2.60;;;19.40;90.50;;;;;;5013519;28;20465;-65
2023/08/22 00:21:05;;;;;;;5.30;3.10;;;19.40;91.00;;;;;;5013064;28;20445;-65
2023/08/22 00:23:32;;;;;;;4.70;2.43;;;19.30;91.30;;;;;;5013000;28;20541;-65
2023/08/22 00:25:59;;;;;;;4.20;2.40;;;19.30;91.70;;;;;;5013191;28;20449;-65
2023/08/22 00:28:26;;;;;;;3.30;2.50;;;19.30;92.00;;;;;;5015883;28;20991;-65
2023/08/22 00:30:53;;;;;;;3.90;2.63;;;19.20;92.30;;;;;;5017471;28;20457;-65
2023/08/22 00:33:20;;;;;;;9.37;3.03;;;19.20;92.70;;;;;;5017072;28;20442;-66
2023/08/22 00:35:47;;;;;;;5.13;2.60;;;19.10;93.00;;;;;;5016876;28;20822;-65
2023/08/22 00:38:15;;;;;;;5.40;2.60;;;19.10;93.40;;;;;;5017014;28;20485;-65
2023/08/22 00:40:41;;;;;;;5.10;2.40;;;19.10;93.60;;;;;;5017357;28;20445;-66
2023/08/22 00:43:08;;;;;;;3.30;2.00;;;19.00;93.80;;;;;;5017213;28;20442;-65
2023/08/22 00:45:35;;;;;;;2.70;2.50;;;19.00;94.10;;;;;;5017712;28;20445;-66
2023/08/22 00:48:02;;;;;;;3.80;2.07;;;19.00;94.50;;;;;;5017094;28;20480;-65
2023/08/22 00:50:29;;;;;;;2.67;2.33;;;18.90;94.80;;;;;;5018894;28;20452;-64
2023/08/22 00:52:56;;;;;;;3.90;2.63;;;18.90;95.10;;;;;;5016947;28;20446;-65
2023/08/22 00:55:24;;;;;;;6.33;2.77;;;18.90;95.50;;;;;;5016945;28;20446;-65
2023/08/22 00:57:51;;;;;;;4.97;2.33;;;18.80;95.70;;;;;;5016918;28;20473;-66
2023/08/22 01:00:18;;;;;;;5.07;2.20;;;18.80;96.00;;;;;;5017036;28;20449;-65
2023/08/22 01:02:45;;;;;;;7.00;2.47;;;18.70;96.30;;;;;;5016948;28;20442;-65
2023/08/22 01:05:12;;;;;;;3.17;2.17;;;18.70;96.60;;;;;;5016729;28;20437;-65
2023/08/22 01:07:46;;;;;;;5.03;2.87;;;18.70;96.90;;;;;;5016671;28;20513;-65
2023/08/22 01:10:18;;;;;;;4.40;2.63;;;18.60;97.10;;;;;;5016210;28;20810;-65
2023/08/22 01:12:53;;;;;;;4.50;2.43;;;18.60;97.20;;;;;;5017200;28;20444;-65
2023/08/22 01:15:24;;;;;;;5.43;2.60;;;18.60;97.50;;;;;;5016896;28;20484;-65
2023/08/22 01:17:53;;;;;;;7.23;2.47;;;18.60;97.90;;;;;;5016374;28;20466;-66
2023/08/22 01:20:20;;;;;;;3.10;2.63;;;18.60;98.10;;;;;;5016446;28;20446;-65
2023/08/22 01:22:49;;;;;;;7.20;3.50;;;18.60;98.30;;;;;;5016295;28;20528;-65
2023/08/22 01:25:15;;;;;;;8.27;3.83;;;18.60;98.50;;;;;;5016158;28;20943;-65
2023/08/22 01:27:51;;;;;;;5.83;3.73;;;18.60;98.70;;;;;;5015908;28;20449;-65
2023/08/22 01:30:23;;;;;;;6.07;3.30;;;18.60;98.90;;;;;;5016308;28;20417;-65
2023/08/22 01:32:53;;;;;;;4.37;2.63;;;18.60;99.10;;;;;;5016235;28;20425;-66
2023/08/22 01:35:23;;;;;;;6.10;3.20;;;18.60;99.20;;;;;;5016713;28;20441;-65
2023/08/22 01:37:53;;;;;;;6.93;3.43;;;18.60;99.30;;;;;;5015951;28;20481;-65
2023/08/22 01:40:23;;;;;;;2.83;2.53;;;18.60;99.40;;;;;;5015271;28;20469;-65
2023/08/22 01:42:50;;;;;;;6.23;2.87;;;18.60;99.40;;;;;;5016113;28;20445;-65
2023/08/22 01:45:17;;;;;;;3.70;2.70;;;18.60;99.40;;;;;;5016180;28;20446;-65
2023/08/22 01:47:44;;;;;;;4.07;3.00;;;18.70;99.30;;;;;;5015909;28;20456;-64
2023/08/22 01:50:11;;;;;;;8.53;4.90;;;18.70;99.20;;;;;;5016170;28;20441;-65
2023/08/22 01:52:38;;;;;;;4.60;3.10;;;18.70;99.00;;;;;;5015642;28;20916;-65
2023/08/22 01:55:07;;;;;;;5.93;5.33;;;18.80;98.90;;;;;;5016331;28;20452;-65
2023/08/22 01:57:34;;;;;;;3.83;3.17;;;18.80;98.90;;;;;;5015632;28;20481;-65
2023/08/22 02:00:00;;;;;;;3.77;2.57;;;18.80;98.70;;;;;;5015534;28;20585;-65
2023/08/22 02:02:27;;;;;;;3.53;2.70;;;18.90;98.70;;;;;;5015563;28;20442;-65
2023/08/22 02:04:54;;;;;;;3.73;2.23;;;18.90;98.70;;;;;;5015207;28;20828;-65
2023/08/22 02:07:20;;;;;;;3.30;2.33;;;18.90;98.60;;;;;;5015194;28;20441;-65
2023/08/22 02:09:47;;;;;;;4.90;2.27;;;19.00;98.50;;;;;;5014895;28;20469;-65
2023/08/22 02:12:15;;;;;;;5.13;2.47;;;19.00;98.30;;;;;;5015061;28;20936;-65
2023/08/22 02:14:42;;;;;;;3.40;2.37;;;19.00;98.20;;;;;;5015205;28;20445;-65
2023/08/22 02:17:09;;;;;;;5.83;2.13;;;19.10;98.00;;;;;;5014904;28;20488;-65
2023/08/22 02:19:36;;;;;;;3.70;2.43;;;19.10;97.90;;;;;;5014860;28;20465;-65
2023/08/22 02:22:02;;;;;;;3.40;2.33;;;19.10;97.60;;;;;;5014832;28;20452;-65
2023/08/22 02:24:29;;;;;;;4.80;2.03;;;19.20;97.60;;;;;;5015065;28;20445;-65
2023/08/22 02:26:56;;;;;;;5.10;2.33;;;19.20;97.50;;;;;;5014744;28;20801;-65
2023/08/22 02:29:24;;;;;;;4.80;2.43;;;19.20;97.30;;;;;;5014891;28;20481;-65
2023/08/22 02:31:50;;;;;;;2.70;2.07;;;19.20;97.30;;;;;;5015015;28;20442;-65
2023/08/22 02:34:17;;;;;;;4.00;2.20;;;19.20;97.20;;;;;;5014569;28;20928;-65
2023/08/22 02:36:44;;;;;;;3.23;2.40;;;19.20;97.10;;;;;;5014490;28;20448;-65
2023/08/22 02:39:11;;;;;;;3.50;2.30;;;19.20;97.10;;;;;;5014407;28;20462;-65
2023/08/22 02:41:37;;;;;;;5.90;2.33;;;19.20;97.20;;;;;;5015069;28;20534;-65
2023/08/22 02:44:04;;;;;;;6.50;2.60;;;19.20;97.40;;;;;;5014757;28;20445;-65
2023/08/22 02:46:32;;;;;;;2.27;2.00;;;19.20;97.00;;;;;;5014779;28;20464;-65
2023/08/22 02:49:00;;;;;;;4.40;2.27;;;19.20;96.90;;;;;;5014616;28;20476;-65
2023/08/22 02:51:27;;;;;;;4.13;2.40;;;19.20;96.90;;;;;;5013573;28;20465;-65
2023/08/22 02:53:54;;;;;;;4.17;2.30;;;19.20;96.80;;;;;;5014777;28;20453;-66
2023/08/22 02:56:21;;;;;;;4.20;2.50;;;19.20;96.70;;;;;;5014199;28;20636;-65
2023/08/22 02:58:47;;;;;;;2.87;2.20;;;19.30;96.70;;;;;;5013999;28;20482;-65
2023/08/22 03:01:16;;;;;;;4.13;2.30;;;19.30;96.60;;;;;;5014426;28;20437;-65
2023/08/22 03:03:49;;;;;;;2.77;2.00;;;19.30;96.50;;;;;;5014401;28;20590;-64
2023/08/22 03:06:16;;;;;;;2.80;2.30;;;19.30;96.50;;;;;;5014219;28;20445;-64
2023/08/22 03:08:43;;;;;;;4.73;2.30;;;19.30;96.40;;;;;;5014194;28;20478;-64
2023/08/22 03:11:09;;;;;;;10.50;2.70;;;19.30;96.40;;;;;;5014272;28;20442;-64
2023/08/22 03:13:36;;;;;;;2.87;1.97;;;19.30;96.50;;;;;;5014166;28;20454;-65
2023/08/22 03:16:04;;;;;;;3.97;2.60;;;19.30;96.40;;;;;;5013830;28;20466;-65
2023/08/22 03:18:31;;;;;;;4.80;2.80;;;19.40;96.60;;;;;;5013966;28;20489;-65
2023/08/22 03:20:59;;;;;;;3.93;2.13;;;19.40;96.20;;;;;;5014057;28;20446;-64
2023/08/22 03:23:26;;;;;;;8.40;2.43;;;19.40;96.10;;;;;;5014178;28;20438;-65
2023/08/22 03:25:57;;;;;;;6.47;2.13;;;19.40;96.00;;;;;;5013349;28;20983;-64
2023/08/22 03:28:25;;;;;;;4.00;2.07;;;19.50;96.10;;;;;;5014071;28;20461;-65
2023/08/22 03:30:55;;;;;;;4.80;2.47;;;19.50;96.00;;;;;;5014647;28;20453;-65
2023/08/22 03:33:22;;;;;;;5.13;2.30;;;19.50;95.90;;;;;;5014473;28;20469;-64
2023/08/22 03:35:50;;;;;;;3.80;2.43;;;19.50;95.90;;;;;;5013878;28;20442;-65
2023/08/22 03:38:18;;;;;;;3.73;2.13;;;19.60;95.90;;;;;;5013410;28;20855;-64
2023/08/22 03:40:45;;;;;;;6.00;2.87;;;19.60;95.90;;;;;;5013774;28;20442;-65
2023/08/22 03:43:11;;;;;;;4.17;2.30;;;19.50;95.80;;;;;;5014025;28;20448;-65
2023/08/22 03:45:38;;;;;;;3.07;1.90;;;19.60;95.80;;;;;;5013985;28;20449;-65
2023/08/22 03:48:06;;;;;;;2.23;2.03;;;19.60;95.80;;;;;;5013674;28;20457;-65
2023/08/22 03:50:33;;;;;;;6.37;2.10;;;19.60;95.70;;;;;;5013287;28;20936;-65
2023/08/22 03:52:59;;;;;;;4.40;2.20;;;19.60;95.70;;;;;;5013203;28;20441;-65
2023/08/22 03:55:27;;;;;;;4.63;2.10;;;19.60;95.70;;;;;;5013785;28;20442;-65
2023/08/22 03:57:54;;;;;;;3.43;2.40;;;19.60;95.70;;;;;;5013361;28;20481;-65
2023/08/22 04:00:21;;;;;;;3.07;2.30;;;19.60;95.80;;;;;;5013527;28;20442;-65
2023/08/22 04:02:48;;;;;;;3.00;2.30;;;19.60;95.80;;;;;;5013371;28;20464;-65
2023/08/22 04:05:14;;;;;;;4.27;2.23;;;19.60;95.80;;;;;;5013471;28;20442;-65
2023/08/22 04:07:42;;;;;;;3.17;2.00;;;19.60;95.90;;;;;;5012899;28;20445;-64
2023/08/22 04:12:07;;;;;;;5.70;2.70;;;19.60;95.70;;;;;;5090912;28;20615;-65
2023/08/22 04:14:34;;;;;;;3.07;2.33;;;19.60;95.90;;;;;;5090727;28;20439;-65
2023/08/22 04:17:01;;;;;;;3.80;2.70;;;19.60;96.00;;;;;;5090821;28;20442;-65
2023/08/22 04:19:28;;;;;;;2.63;2.27;;;19.60;96.10;;;;;;5090094;28;20472;-63
2023/08/22 04:21:54;;;;;;;3.93;2.07;;;19.50;96.20;;;;;;5090424;28;20439;-66
2023/08/22 04:24:21;;;;;;;4.90;2.47;;;19.50;96.30;;;;;;5090233;28;20450;-64
2023/08/22 04:26:48;;;;;;;4.00;2.20;;;19.50;96.40;;;;;;5090166;28;20457;-63
2023/08/22 04:29:16;;;;;;;5.43;2.53;;;19.50;96.60;;;;;;5090252;28;20462;-64
2023/08/22 04:31:44;;;;;;;3.67;2.40;;;19.50;96.70;;;;;;5090053;28;20991;-63
2023/08/22 04:34:10;;;;;;;2.70;1.90;;;19.50;97.20;;;;;;5090250;28;20441;-64
2023/08/22 04:36:37;;;;;;;3.00;2.20;;;19.50;97.10;;;;;;5090729;28;20590;-64
2023/08/22 04:39:04;;;;;;;5.63;2.47;;;19.50;97.30;;;;;;5089768;28;20465;-64
2023/08/22 04:41:31;;;;;;;4.40;2.30;;;19.50;97.60;;;;;;5089777;28;20924;-64
2023/08/22 04:43:57;;;;;;;4.00;2.00;;;19.50;98.00;;;;;;5090132;28;20438;-64
2023/08/22 04:46:26;;;;;;;4.30;2.83;;;19.60;98.50;;;;;;5090464;28;20452;-63
2023/08/22 04:48:52;;;;;;;5.37;2.40;;;19.50;98.90;;;;;;5089921;28;20470;-64
2023/08/22 04:51:19;;;;;;;2.83;2.33;;;19.60;99.30;;;;;;5089891;28;20473;-64
2023/08/22 04:53:46;;;;;;;3.40;2.60;;;19.60;99.70;;;;;;5090018;28;20442;-64
2023/08/22 04:56:13;;;;;;;5.87;2.60;;;19.60;99.90;;;;;;5090031;28;20496;-65
2023/08/22 04:58:40;;;;;;;3.20;2.90;;;19.60;99.90;;;;;;5089972;28;20465;-64
2023/08/22 05:01:07;;;;;;;4.47;2.23;;;19.70;99.90;;;;;;5089412;28;20443;-64
2023/08/22 05:03:35;;;;;;;3.97;2.27;;;19.70;99.90;;;;;;5089884;28;20831;-64
2023/08/22 05:06:01;;;;;;;4.20;2.70;;;19.70;99.90;;;;;;5089571;28;20951;-64
2023/08/22 05:08:28;;;;;;;3.10;1.97;;;19.80;99.90;;;;;;5089932;28;20465;-64
2023/08/22 05:10:55;;;;;;;7.37;2.70;;;19.80;99.90;;;;;;5089498;28;20486;-63
2023/08/22 05:13:22;;;;;;;6.57;2.87;;;19.90;99.90;;;;;;5089567;28;20928;-64
2023/08/22 05:15:48;;;;;;;5.70;2.80;;;19.90;99.60;;;;;;5089206;28;20940;-63
2023/08/22 05:18:15;;;;;;;2.40;2.20;;;19.90;99.30;;;;;;5089759;28;20454;-64
2023/08/22 05:20:43;;;;;;;4.27;2.60;;;20.00;99.10;;;;;;5089304;28;20909;-64
2023/08/22 05:23:10;;;;;;;4.50;2.40;;;20.00;98.90;;;;;;5077970;28;20814;-64
2023/08/22 05:25:36;;;;;;;3.40;2.40;;;20.00;98.60;;;;;;5075606;28;20443;-65
2023/08/22 05:28:04;;;;;;;4.20;2.67;;;20.10;98.40;;;;;;5075613;28;20474;-63
2023/08/22 05:30:30;;;;;;;4.50;3.10;;;20.20;98.20;;;;;;5076060;28;20490;-63
2023/08/22 05:32:57;;;;;;;4.63;2.70;;;20.20;98.00;;;;;;5076476;28;20944;-65
2023/08/22 05:35:24;;;;;;;3.03;2.43;;;20.20;97.70;;;;;;5077079;28;20439;-65
2023/08/22 05:37:52;;;;;;;5.70;2.33;;;20.30;97.50;;;;;;5077072;28;20443;-64
2023/08/22 05:40:19;;;;;;;4.90;2.40;;;20.30;97.30;;;;;;5076297;28;20450;-63
2023/08/22 05:42:46;;;;;;;6.17;2.60;;;20.30;97.00;;;;;;5077592;28;20998;-64
2023/08/22 05:45:12;;;;;;;12.57;2.80;;;20.40;96.80;;;;;;5077982;28;20444;-62
2023/08/22 05:47:39;;;;;;;3.43;2.70;;;20.40;96.60;;;;;;5076052;28;20432;-64
2023/08/22 05:50:07;;;;;;;4.10;2.30;;;20.50;96.30;;;;;;5075788;28;20442;-65
2023/08/22 05:52:34;;;;;;;5.00;2.90;;;20.60;95.90;;;;;;5075674;28;20440;-64
2023/08/22 05:55:03;;;;;;;4.53;2.50;;;20.70;95.60;;;;;;5075976;28;20439;-64
2023/08/22 05:57:30;;;;;;;4.43;2.60;;;20.80;95.10;;;;;;5074856;28;20555;-64
2023/08/22 05:59:56;;;;;;;4.47;3.13;;;20.80;94.60;;;;;;5075252;28;20459;-64
2023/08/22 06:02:23;;;;;;;6.27;2.53;;;21.00;94.20;;;;;;5076108;28;20971;-63
2023/08/22 06:04:50;;;;;;;5.60;3.10;;;21.10;93.90;;;;;;5076305;28;20449;-64
2023/08/22 06:07:17;;;;;;;5.83;3.17;;;21.10;93.50;;;;;;5075915;28;20963;-64
2023/08/22 06:09:44;;;;;;;3.60;2.63;;;21.30;93.00;;;;;;5087766;22;20495;-65
2023/08/22 06:12:12;;;;;;;5.57;3.37;;;21.40;92.40;;;;;;5055572;28;20483;-67
2023/08/22 06:14:39;;;;;;;10.10;3.37;;;21.50;91.80;;;;;;5054885;28;20447;-66
2023/08/22 06:17:06;;;;;;;4.77;2.23;;;21.60;91.30;;;;;;5055580;28;20934;-67
2023/08/22 06:19:33;;;;;;;4.33;2.60;;;21.60;90.80;;;;;;5054242;28;21000;-64
2023/08/22 06:21:59;;;;;;;4.70;2.63;;;21.70;90.50;;;;;;5054806;28;20436;-66
2023/08/22 06:24:26;;;;;;;4.43;2.53;;;21.80;90.20;;;;;;5054711;28;20440;-65
2023/08/22 06:26:53;;;;;;;6.30;2.37;;;21.90;89.50;;;;;;5054237;28;20823;-65
2023/08/22 06:29:21;;;;;;;4.80;2.90;;;22.00;88.70;;;;;;5054101;28;20845;-66
2023/08/22 06:31:48;;;;;;;5.50;3.63;;;22.20;87.70;;;;;;5054486;28;20483;-66
2023/08/22 06:34:14;;;;;;;9.03;2.80;;;22.40;86.80;;;;;;5053590;28;20435;-66
2023/08/22 06:36:41;;;;;;;5.20;2.60;;;22.60;85.00;;;;;;5054174;28;20942;-66
2023/08/22 06:39:08;;;;;;;5.50;2.60;;;22.80;83.10;;;;;;5054323;28;20483;-67
2023/08/22 06:41:35;;;;;;;6.17;2.47;;;23.00;81.40;;;;;;5054319;28;20439;-66
2023/08/22 06:44:07;;;;;;;6.03;3.10;;;23.20;80.10;;;;;;5054360;28;20446;-66
2023/08/22 06:46:36;;;;;;;3.73;2.17;;;23.30;78.60;;;;;;5053994;28;20424;-69
2023/08/22 06:49:02;;;;;;;6.27;2.57;;;23.50;77.50;;;;;;5054002;28;20460;-67
2023/08/22 06:51:29;;;;;;;3.87;2.40;;;23.70;76.40;;;;;;5054118;28;20480;-67
2023/08/22 06:53:56;;;;;;;4.50;2.07;;;23.80;75.20;;;;;;5054076;28;20816;-64
2023/08/22 06:56:23;;;;;;;6.07;2.80;;;23.90;75.00;;;;;;5053835;28;20455;-68
2023/08/22 06:58:49;;;;;;;20.03;3.00;;;24.00;74.70;;;;;;5054030;28;20482;-67
2023/08/22 07:01:16;;;;;;;5.17;2.00;;;24.20;74.00;;;;;;5054049;28;20448;-66
2023/08/22 07:03:44;;;;;;;4.90;2.20;;;24.20;73.40;;;;;;5053451;28;20467;-65
2023/08/22 07:06:11;;;;;;;6.23;2.20;;;24.30;73.00;;;;;;5053867;28;20444;-66
2023/08/22 07:08:38;;;;;;;5.73;3.20;;;24.10;72.50;;;;;;5053293;28;20857;-66
2023/08/22 07:11:05;;;;;;;3.33;2.20;;;24.10;73.00;;;;;;5053815;28;20471;-67
2023/08/22 07:13:33;;;;;;;10.33;2.97;;;23.90;73.30;;;;;;5053770;28;20442;-67
2023/08/22 07:16:00;;;;;;;5.93;2.37;;;23.90;73.70;;;;;;5053673;28;20436;-65
2023/08/22 07:18:27;;;;;;;6.50;2.37;;;24.00;73.80;;;;;;5053670;28;20564;-66
2023/08/22 07:20:55;;;;;;;5.63;2.70;;;24.00;73.60;;;;;;5053679;28;20486;-67
2023/08/22 07:23:23;;;;;;;4.77;2.87;;;24.10;73.30;;;;;;5053590;28;20448;-65
2023/08/22 07:25:50;;;;;;;7.57;2.90;;;24.10;72.70;;;;;;5053290;28;20934;-65
2023/08/22 07:28:17;;;;;;;3.33;2.73;;;24.30;72.10;;;;;;5053504;28;20444;-66
2023/08/22 07:30:46;;;;;;;5.07;2.77;;;24.50;71.60;;;;;;5053145;28;20447;-66
2023/08/22 07:33:13;;;;;;;5.73;2.97;;;24.60;71.30;;;;;;5053065;28;20452;-67
2023/08/22 07:35:40;;;;;;;10.10;2.30;;;24.80;71.10;;;;;;5053197;28;20833;-66
2023/08/22 07:38:08;;;;;;;4.10;3.00;;;24.90;70.40;;;;;;5053569;28;20832;-65
2023/08/22 07:40:38;;;;;;;6.40;3.90;;;25.10;69.80;;;;;;5053272;28;20459;-66
2023/08/22 07:43:05;;;;;;;12.27;4.83;;;25.30;69.40;;;;;;5053274;28;20832;-66
2023/08/22 07:45:32;;;;;;;7.03;3.07;;;25.50;68.80;;;;;;5052437;28;20436;-65
2023/08/22 07:47:59;;;;;;;5.60;3.33;;;25.70;67.80;;;;;;5053235;28;20451;-66
2023/08/22 07:50:26;;;;;;;14.77;3.50;;;26.00;66.80;;;;;;5052832;28;20456;-66
2023/08/22 07:52:52;;;;;;;7.60;2.93;;;26.30;65.50;;;;;;5053156;28;20472;-66
2023/08/22 07:55:23;;;;;;;12.10;4.00;;;26.20;64.90;;;;;;5053526;28;20443;-66
2023/08/22 07:57:50;;;;;;;12.70;3.20;;;26.10;65.10;;;;;;5052275;28;20429;-66
2023/08/22 08:00:18;;;;;;;6.97;4.30;;;26.20;65.20;;;;;;5052538;28;20466;-67
2023/08/22 08:02:45;;;;;;;8.43;3.13;;;26.30;64.80;;;;;;5053011;28;20436;-67
2023/08/22 08:05:13;;;;;;;8.47;3.33;;;26.40;64.40;;;;;;5053546;28;20498;-66
2023/08/22 08:07:40;;;;;;;7.97;2.80;;;26.40;64.20;;;;;;5052794;28;20436;-66
2023/08/22 08:10:07;;;;;;;5.10;3.13;;;26.40;64.10;;;;;;5052342;28;20993;-66
2023/08/22 08:12:35;;;;;;;9.53;2.93;;;26.50;63.70;;;;;;5052862;28;20545;-67
2023/08/22 08:15:03;;;;;;;11.57;2.70;;;26.50;63.20;;;;;;5053073;28;20447;-67
2023/08/22 08:17:30;;;;;;;6.03;3.40;;;26.40;62.90;;;;;;5052509;28;21044;-67
2023/08/22 08:19:56;;;;;;;3.50;2.50;;;26.20;63.10;;;;;;5052485;28;21001;-66
2023/08/22 08:22:23;;;;;;;9.00;3.00;;;26.10;63.10;;;;;;5053014;28;20497;-66
2023/08/22 08:24:53;;;;;;;7.80;2.77;;;26.20;63.00;;;;;;5052973;28;20446;-66
2023/08/22 08:27:20;;;;;;;4.40;2.30;;;26.30;62.20;;;;;;5053031;28;20949;-66
2023/08/22 08:29:48;;;;;;;3.70;2.00;;;26.40;61.40;;;;;;5053396;28;20464;-67
2023/08/22 08:32:15;;;;;;;5.03;2.60;;;26.50;60.70;;;;;;5053970;28;20475;-66
2023/08/22 08:34:42;;;;;;;4.40;3.37;;;26.70;60.30;;;;;;5053219;28;20444;-65
2023/08/22 08:37:08;;;;;;;4.57;2.40;;;26.90;59.90;;;;;;5054222;28;20452;-66
2023/08/22 08:39:36;;;;;;;4.03;2.17;;;27.00;59.40;;;;;;5053017;28;20467;-65
2023/08/22 08:42:07;;;;;;;2.30;2.10;;;27.00;59.10;;;;;;5052856;28;20436;-66
2023/08/22 08:44:34;;;;;;;3.37;2.00;;;26.90;59.10;;;;;;5053119;28;20425;-66
2023/08/22 08:47:04;;;;;;;3.70;2.03;;;26.70;58.50;;;;;;5052592;28;20458;-65
2023/08/22 08:49:33;;;;;;;3.97;2.03;;;26.50;58.70;;;;;;5052220;28;20472;-67
2023/08/22 08:52:02;;;;;;;3.87;2.07;;;26.50;58.80;;;;;;5052458;28;20517;-66
2023/08/22 08:54:29;;;;;;;3.33;1.80;;;26.60;58.50;;;;;;5053091;28;20878;-66
2023/08/22 08:56:56;;;;;;;3.53;2.27;;;26.60;58.20;;;;;;5053178;28;20444;-65
2023/08/22 08:59:27;;;;;;;3.87;2.10;;;26.60;58.40;;;;;;5056415;28;20838;-66
2023/08/22 09:01:54;;;;;;;5.73;2.53;;;26.60;58.30;;;;;;5056237;28;20427;-65
2023/08/22 09:04:23;;;;;;;4.30;2.70;;;26.70;58.10;;;;;;5056396;28;20444;-67
2023/08/22 09:06:50;;;;;;;5.63;2.20;;;26.70;57.70;;;;;;5056379;28;20494;-66
2023/08/22 09:09:17;;;;;;;3.10;1.93;;;26.70;57.60;;;;;;5055998;28;20484;-65
2023/08/22 09:11:45;;;;;;;4.30;2.13;;;26.60;57.40;;;;;;5055919;28;20483;-66
2023/08/22 09:14:12;;;;;;;3.60;2.17;;;26.50;57.10;;;;;;5064363;28;20502;-63
2023/08/22 09:16:39;;;;;;;2.53;2.00;;;26.30;57.00;;;;;;5058927;28;20945;-64
2023/08/22 09:19:07;;;;;;;4.10;1.97;;;26.20;56.90;;;;;;5057574;28;20466;-63
2023/08/22 09:21:35;;;;;;;2.50;1.73;;;26.20;57.00;;;;;;5057503;28;20447;-63
2023/08/22 09:24:09;;;;;;;7.50;2.77;;;26.10;57.10;;;;;;5058445;28;20447;-63
2023/08/22 09:26:37;;;;;;;5.23;2.60;;;26.00;57.30;;;;;;5056864;28;20440;-63
2023/08/22 09:29:06;;;;;;;6.73;2.40;;;26.00;57.60;;;;;;5057205;28;20554;-62
2023/08/22 09:31:35;;;;;;;4.40;2.13;;;26.00;57.80;;;;;;5056263;28;20515;-63
2023/08/22 09:34:09;;;;;;;3.37;1.90;;;26.00;58.00;;;;;;5055547;28;20451;-64
2023/08/22 09:36:44;;;;;;;3.83;2.10;;;26.00;57.90;;;;;;5056322;28;20967;-63
2023/08/22 09:39:15;;;;;;;9.70;2.63;;;25.90;57.80;;;;;;5056394;28;20470;-64
2023/08/22 09:41:42;;;;;;;4.30;2.40;;;25.90;57.70;;;;;;5056038;28;20424;-64
2023/08/22 09:44:11;;;;;;;9.10;1.90;;;26.00;57.70;;;;;;5055439;28;20811;-64
2023/08/22 09:46:41;;;;;;;3.60;2.10;;;26.00;57.70;;;;;;5055678;28;20440;-64
2023/08/22 09:49:11;;;;;;;4.33;2.43;;;26.10;57.30;;;;;;5055981;28;20847;-65
2023/08/22 09:51:40;;;;;;;4.40;2.17;;;26.20;57.20;;;;;;5055936;28;20429;-63
2023/08/22 09:54:08;;;;;;;4.13;2.20;;;26.20;56.90;;;;;;5055811;28;20443;-64
2023/08/22 09:56:35;;;;;;;7.90;3.07;;;26.20;56.70;;;;;;5055718;28;20444;-64
2023/08/22 09:59:03;;;;;;;6.43;2.40;;;26.20;56.80;;;;;;5055493;28;20479;-63
2023/08/22 10:01:33;;;;;;;3.80;2.23;;;26.10;57.10;;;;;;5055849;28;20471;-64
2023/08/22 10:04:03;;;;;;;4.27;2.30;;;26.10;57.20;;;;;;5056039;28;20459;-62
2023/08/22 10:06:31;;;;;;;4.13;2.87;;;26.10;56.90;;;;;;5055702;28;20440;-62
2023/08/22 10:09:00;;;;;;;3.53;1.50;;;26.10;56.70;;;;;;5055704;28;20467;-61
2023/08/22 10:11:29;;;;;;;4.93;2.13;;;26.20;56.50;;;;;;5056573;28;20444;-62
2023/08/22 10:13:56;;;;;;;3.40;2.03;;;26.20;56.30;;;;;;5054924;28;20875;-63
2023/08/22 10:16:22;;;;;;;3.77;2.30;;;26.30;56.40;;;;;;5056115;28;20518;-63
2023/08/22 10:19:01;;;;;;;4.33;2.73;;;26.40;56.20;;;;;;5054898;28;21198;-62
2023/08/22 10:21:31;;;;;;;5.80;2.40;;;26.50;55.90;;;;;;5055638;28;20436;-64
2023/08/22 10:23:59;;;;;;;3.90;2.43;;;26.60;55.60;;;;;;5055591;28;20421;-63
2023/08/22 10:26:47;;;;;;;4.40;2.63;;;26.60;55.60;;;;;;5054554;28;20449;-63
2023/08/22 10:29:15;;;;;;;5.90;2.50;;;26.70;55.60;;;;;;5054783;28;20465;-63
2023/08/22 10:32:20;;;;;;;7.50;3.20;;;26.70;55.20;;;;;;5054625;28;20440;-64
2023/08/22 10:35:24;;;;;;;7.37;2.63;;;26.60;55.20;;;;;;5054398;28;20444;-63
2023/08/22 10:37:52;;;;;;;3.97;2.27;;;26.40;55.60;;;;;;5054519;28;20409;-62
2023/08/22 10:40:30;;;;;;;3.60;2.00;;;26.50;55.70;;;;;;5054239;28;20831;-64
2023/08/22 10:43:07;;;;;;;7.70;2.13;;;26.70;54.70;;;;;;5054309;28;20424;-64
2023/08/22 10:45:48;;;;;;;3.53;2.37;;;26.90;53.30;;;;;;5054346;28;20816;-63
2023/08/22 10:48:17;;;;;;;2.90;2.43;;;27.00;52.50;;;;;;5054366;28;20443;-64
2023/08/22 10:50:45;;;;;;;4.10;2.17;;;27.10;52.40;;;;;;5053598;28;20440;-63
2023/08/22 10:53:27;;;;;;;3.90;2.17;;;27.20;52.10;;;;;;5054166;28;20479;-63
2023/08/22 10:55:57;;;;;;;2.80;2.07;;;27.30;52.10;;;;;;5051312;28;20929;-64
2023/08/22 10:58:33;;;;;;;2.20;1.93;;;27.40;51.80;;;;;;5054383;28;20436;-63
2023/08/22 11:01:00;;;;;;;2.77;2.40;;;27.40;51.80;;;;;;5054783;28;20502;-62
2023/08/22 11:03:27;;;;;;;4.07;2.13;;;27.50;51.70;;;;;;5055475;28;20436;-63
2023/08/22 11:05:54;;;;;;;5.47;2.70;;;27.60;51.80;;;;;;5055601;28;20442;-62
2023/08/22 11:08:22;;;;;;;9.33;2.40;;;27.70;51.70;;;;;;5058794;28;20447;-64
2023/08/22 11:10:50;;;;;;;3.73;1.97;;;27.60;51.40;;;;;;5059070;28;20428;-64
2023/08/22 11:13:18;;;;;;;4.63;2.00;;;27.60;51.30;;;;;;5058379;28;20502;-63
2023/08/22 11:15:49;;;;;;;5.47;2.30;;;27.40;51.30;;;;;;5058338;28;20550;-63
2023/08/22 11:18:16;;;;;;;2.60;1.90;;;27.40;51.60;;;;;;5055581;28;20460;-63
2023/08/22 11:20:43;;;;;;;4.53;2.17;;;27.40;51.50;;;;;;5055897;28;20453;-63
2023/08/22 11:23:11;;;;;;;3.47;2.27;;;27.50;51.30;;;;;;5057766;28;20443;-63
2023/08/22 11:25:41;;;;;;;5.23;2.90;;;27.50;51.30;;;;;;5056627;28;20446;-63
2023/08/22 11:28:08;;;;;;;6.00;2.13;;;27.50;51.50;;;;;;5056056;28;20555;-63
2023/08/22 11:30:36;;;;;;;5.80;2.10;;;27.50;51.70;;;;;;5053097;28;20989;-64
2023/08/22 11:33:03;;;;;;;5.00;2.40;;;27.60;51.70;;;;;;5053213;28;20529;-63
2023/08/22 11:35:32;;;;;;;3.30;2.20;;;27.60;51.60;;;;;;5054060;28;20542;-63
2023/08/22 11:38:01;;;;;;;5.83;2.30;;;27.60;51.20;;;;;;5053785;28;20448;-63
2023/08/22 11:40:31;;;;;;;4.40;2.13;;;27.60;51.00;;;;;;5053684;28;21068;-62
2023/08/22 11:42:59;;;;;;;3.37;3.07;;;27.80;50.50;;;;;;5053042;28;20438;-61
2023/08/22 11:45:26;;;;;;;5.87;2.80;;;27.80;50.40;;;;;;5053147;28;20440;-63
2023/08/22 11:47:56;;;;;;;4.63;3.33;;;27.80;50.30;;;;;;5053159;28;20466;-62
2023/08/22 11:50:27;;;;;;;5.20;2.80;;;27.90;50.10;;;;;;5052783;28;20464;-63
2023/08/22 11:52:55;;;;;;;4.93;2.80;;;27.90;50.00;;;;;;5053317;28;20476;-62
2023/08/22 11:55:25;;;;;;;3.17;2.57;;;27.90;49.90;;;;;;5053555;28;20460;-63
2023/08/22 11:57:54;;;;;;;7.33;2.93;;;27.80;50.10;;;;;;5052679;28;21027;-64
2023/08/22 12:00:21;;;;;;;1.73;1.50;;;27.80;50.00;;;;;;5055036;28;20462;-64
2023/08/22 12:02:51;;;;;;;3.00;1.43;;;28.10;49.50;;;;;;5053227;28;20798;-63
2023/08/22 12:05:33;;;;;;;2.83;1.47;;;28.10;47.10;;;;;;5052955;28;20448;-64
2023/08/22 12:08:01;;;;;;;2.27;1.70;;;28.00;46.40;;;;;;5058176;28;20894;-61
2023/08/22 12:10:39;;;;;;;2.03;1.63;;;28.10;46.50;;;;;;5052751;28;20467;-61
2023/08/22 12:13:07;;;;;;;4.20;1.43;;;28.30;46.20;;;;;;5053102;28;20464;-63
2023/08/22 12:15:34;;;;;;;1.93;1.30;;;28.30;46.10;;;;;;5095245;22;20581;-61
2023/08/22 12:18:02;;;;;;;2.33;1.10;;;28.30;46.10;;;;;;5074356;28;20435;-62
2023/08/22 12:20:31;;;;;;;5.67;1.90;;;28.30;45.90;;;;;;5073932;28;20496;-62
2023/08/22 12:22:57;;;;;;;2.43;1.63;;;28.20;45.80;;;;;;5073910;28;20438;-62
2023/08/22 12:25:24;;;;;;;2.10;1.80;;;28.10;45.90;;;;;;5074593;28;20455;-63
2023/08/22 12:27:51;;;;;;;1.40;1.20;;;28.20;45.90;;;;;;5074915;28;20449;-63
2023/08/22 12:30:18;;;;;;;2.60;1.57;;;28.30;45.80;;;;;;5073851;28;20443;-62
2023/08/22 12:32:46;;;;;;;3.77;1.83;;;28.10;46.00;;;;;;5075648;28;20478;-63
2023/08/22 12:35:13;;;;;;;1.73;1.20;;;27.90;46.20;;;;;;5078302;28;20458;-63
2023/08/22 12:37:41;;;;;;;2.23;1.50;;;27.70;46.20;;;;;;5078320;28;20447;-64
2023/08/22 12:40:10;;;;;;;3.00;1.63;;;27.60;46.60;;;;;;5078688;28;20469;-62
2023/08/22 12:42:39;;;;;;;2.53;1.60;;;27.60;46.90;;;;;;5078956;28;21035;-63
2023/08/22 12:45:06;;;;;;;1.63;1.07;;;27.70;46.80;;;;;;5078690;28;20815;-63
2023/08/22 12:47:33;;;;;;;3.63;1.17;;;27.90;46.70;;;;;;5079417;28;20644;-61
2023/08/22 12:50:00;;;;;;;2.23;1.27;;;28.10;46.10;;;;;;5079583;28;20822;-62
2023/08/22 12:52:27;;;;;;;3.10;1.40;;;28.20;45.50;;;;;;5084164;28;20445;-63